createdAt,value
2022-12-11T00:03:01.077Z,31.40
2022-12-11T00:08:02.865Z,30.98
2022-12-11T00:13:04.730Z,32.88
2022-12-11T00:18:06.556Z,32.33
2022-12-11T00:23:08.282Z,33.95
2022-12-11T00:28:10.614Z,29.55
2022-12-11T00:33:14.011Z,32.00
2022-12-11T00:38:17.915Z,34.25
2022-12-11T00:43:19.583Z,33.50
2022-12-11T00:48:21.249Z,32.95
2022-12-11T00:53:22.970Z,32.55
2022-12-11T00:58:24.904Z,32.78
2022-12-11T01:03:26.642Z,31.92
2022-12-11T01:08:28.389Z,33.95
2022-12-11T01:13:30.108Z,33.78
2022-12-11T01:18:31.819Z,33.20
2022-12-11T01:23:33.832Z,33.63
2022-12-11T01:28:36.044Z,32.40
2022-12-11T01:33:38.059Z,32.97
2022-12-11T01:38:39.931Z,33.30
2022-12-11T01:44:03.828Z,30.88
2022-12-11T01:49:11.181Z,33.22
2022-12-11T01:59:21.016Z,29.27
2022-12-11T02:04:23.562Z,30.70
2022-12-11T02:09:28.164Z,31.35
2022-12-11T02:15:11.893Z,30.23
2022-12-11T02:20:23.330Z,29.35
2022-12-11T02:25:32.972Z,27.00
2022-12-11T02:30:39.282Z,28.98
2022-12-11T02:35:44.162Z,28.75
2022-12-11T02:40:50.134Z,25.90
2022-12-11T02:45:53.766Z,25.67
2022-12-11T02:50:58.099Z,25.08
2022-12-11T02:56:14.440Z,25.40
2022-12-11T03:01:16.572Z,26.73
2022-12-11T03:06:21.910Z,26.50
2022-12-11T03:11:23.582Z,25.15
2022-12-11T03:16:35.113Z,25.73
2022-12-11T03:21:45.652Z,23.42
2022-12-11T03:26:56.700Z,25.00
2022-12-11T03:32:08.322Z,22.83
2022-12-11T03:37:13.927Z,22.83
2022-12-11T03:42:18.841Z,23.23
2022-12-11T03:47:24.358Z,23.73
2022-12-11T03:52:28.241Z,23.90
2022-12-11T03:57:32.960Z,23.48
2022-12-11T04:02:34.605Z,24.38
2022-12-11T04:07:36.353Z,23.70
2022-12-11T04:12:37.923Z,24.60
2022-12-11T04:17:57.818Z,25.27
2022-12-11T04:23:18.002Z,26.05
2022-12-11T04:28:19.647Z,26.77
2022-12-11T04:33:21.315Z,26.65
2022-12-11T04:38:22.946Z,27.20
2022-12-11T04:43:24.976Z,21.75
2022-12-11T04:48:26.590Z,23.98
2022-12-11T04:53:28.443Z,23.35
2022-12-11T04:58:30.326Z,20.90
2022-12-11T05:03:32.021Z,25.23
2022-12-11T05:08:35.136Z,24.05
2022-12-11T05:13:37.564Z,27.98
2022-12-11T05:18:39.409Z,27.92
2022-12-11T05:23:42.194Z,26.77
2022-12-11T05:28:44.873Z,27.98
2022-12-11T05:33:48.480Z,25.58
2022-12-11T05:38:51.091Z,25.00
2022-12-11T05:43:53.690Z,24.77
2022-12-11T05:49:00.589Z,24.15
2022-12-11T05:54:03.047Z,22.52
2022-12-11T05:59:06.092Z,20.83
2022-12-11T06:04:09.193Z,20.73
2022-12-11T06:09:15.868Z,21.23
2022-12-11T06:14:17.490Z,21.33
2022-12-11T06:19:19.522Z,18.92
2022-12-11T06:24:21.185Z,20.23
2022-12-11T06:29:22.891Z,18.98
2022-12-11T06:34:24.645Z,18.38
2022-12-11T06:39:26.545Z,18.30
2022-12-11T06:44:28.325Z,17.13
2022-12-11T06:49:30.623Z,18.23
2022-12-11T06:54:32.260Z,17.92
2022-12-11T06:59:33.890Z,17.17
2022-12-11T07:04:35.746Z,17.83
2022-12-11T07:09:41.103Z,17.42
2022-12-11T07:14:42.845Z,16.83
2022-12-11T07:19:44.644Z,17.05
2022-12-11T07:24:46.334Z,20.85
2022-12-11T07:29:48.051Z,23.20
2022-12-11T07:34:51.990Z,20.13
2022-12-11T07:39:54.950Z,18.75
2022-12-11T07:44:56.630Z,19.52
2022-12-11T07:49:59.469Z,18.15
2022-12-11T07:55:01.455Z,19.70
2022-12-11T08:00:05.212Z,18.65
2022-12-11T08:05:14.203Z,16.55
2022-12-11T08:10:16.037Z,17.38
2022-12-11T08:15:17.810Z,16.98
2022-12-11T08:20:19.485Z,17.52
2022-12-11T08:25:21.237Z,20.38
2022-12-11T08:30:23.407Z,18.80
2022-12-11T08:35:26.003Z,17.77
2022-12-11T08:40:27.762Z,16.27
2022-12-11T08:45:29.602Z,16.13
2022-12-11T08:50:31.484Z,17.27
2022-12-11T08:55:33.952Z,17.58
2022-12-11T09:00:36.162Z,17.17
2022-12-11T09:05:38.424Z,17.27
2022-12-11T09:10:40.105Z,18.27
2022-12-11T09:15:41.885Z,16.98
2022-12-11T09:20:43.630Z,15.23
2022-12-11T09:25:45.479Z,16.48
2022-12-11T09:30:47.319Z,16.27
2022-12-11T09:36:02.887Z,14.95
2022-12-11T09:41:22.842Z,13.68
2022-12-11T09:46:28.478Z,14.05
2022-12-11T09:51:51.193Z,13.95
2022-12-11T09:57:07.338Z,14.05
2022-12-11T10:02:35.536Z,14.27
2022-12-11T10:07:56.705Z,14.02
2022-12-11T10:13:26.100Z,13.70
2022-12-11T10:18:29.669Z,14.05
2022-12-11T10:23:38.567Z,13.93
2022-12-11T10:28:40.382Z,14.40
2022-12-11T10:33:50.038Z,13.88
2022-12-11T10:38:51.789Z,14.63
2022-12-11T10:43:53.908Z,14.52
2022-12-11T10:48:58.708Z,14.57
2022-12-11T10:54:07.519Z,14.63
2022-12-11T10:59:35.290Z,15.80
2022-12-11T11:04:39.157Z,13.98
2022-12-11T11:09:41.505Z,15.35
2022-12-11T11:14:43.216Z,14.13
2022-12-11T11:19:48.515Z,12.70
2022-12-11T11:24:58.378Z,11.98
2022-12-11T11:30:17.535Z,11.95
2022-12-11T11:35:22.968Z,13.38
2022-12-11T11:40:27.177Z,13.88
2022-12-11T11:45:56.583Z,13.02
2022-12-11T11:50:58.711Z,12.75
2022-12-11T11:56:14.379Z,12.27
2022-12-11T12:01:19.008Z,12.50
2022-12-11T12:06:36.017Z,14.18
2022-12-11T12:11:46.083Z,15.25
2022-12-11T12:16:57.119Z,14.88
2022-12-11T12:22:26.454Z,14.57
2022-12-11T12:27:52.079Z,17.90
2022-12-11T12:33:07.876Z,14.60
2022-12-11T12:38:27.489Z,15.13
2022-12-11T12:43:35.184Z,13.00
2022-12-11T12:48:36.983Z,15.02
2022-12-11T12:53:39.581Z,16.15
2022-12-11T12:58:43.908Z,15.93
2022-12-11T13:03:59.681Z,14.25
2022-12-11T13:09:18.590Z,14.02
2022-12-11T13:14:23.413Z,13.65
2022-12-11T13:19:27.555Z,16.45
2022-12-11T13:24:31.950Z,17.08
2022-12-11T13:29:42.174Z,15.63
2022-12-11T13:34:58.867Z,17.33
2022-12-11T13:40:08.344Z,16.55
2022-12-11T13:45:21.724Z,15.38
2022-12-11T13:50:30.686Z,14.73
2022-12-11T13:55:34.776Z,16.33
2022-12-11T14:00:36.521Z,19.15
2022-12-11T14:05:38.301Z,16.60
2022-12-11T14:10:40.303Z,15.38
2022-12-11T14:15:45.356Z,15.93
2022-12-11T14:20:54.260Z,16.00
2022-12-11T14:26:03.590Z,17.50
2022-12-11T14:31:06.576Z,17.30
2022-12-11T14:36:09.182Z,18.73
2022-12-11T14:41:19.817Z,17.05
2022-12-11T14:46:35.359Z,18.95
2022-12-11T14:51:40.142Z,18.75
2022-12-11T14:56:45.504Z,19.48
2022-12-11T15:02:01.119Z,18.45
2022-12-11T15:07:21.413Z,19.92
2022-12-11T15:12:24.082Z,20.88
2022-12-11T15:17:32.055Z,20.05
2022-12-11T15:22:36.073Z,21.20
2022-12-11T15:27:39.777Z,20.15
2022-12-11T15:32:41.756Z,20.27
2022-12-11T15:37:53.305Z,19.17
2022-12-11T15:42:56.106Z,20.67
2022-12-11T15:47:59.502Z,20.48
2022-12-11T15:53:01.213Z,19.25
2022-12-11T15:58:06.129Z,20.25
2022-12-11T16:03:12.082Z,19.15
2022-12-11T16:08:15.905Z,20.23
2022-12-11T16:13:17.713Z,20.67
2022-12-11T16:18:22.954Z,21.38
2022-12-11T16:23:24.682Z,21.88
2022-12-11T16:28:26.643Z,22.55
2022-12-11T16:33:28.493Z,22.38
2022-12-11T16:38:30.188Z,23.05
2022-12-11T16:43:32.927Z,21.27
2022-12-11T16:48:34.821Z,21.38
2022-12-11T16:53:36.744Z,20.83
2022-12-11T16:58:38.583Z,22.73
2022-12-11T17:03:42.191Z,23.77
2022-12-11T17:08:44.777Z,24.83
2022-12-11T17:13:46.558Z,26.02
2022-12-11T17:18:48.663Z,20.77
2022-12-11T17:23:51.045Z,21.45
2022-12-11T17:28:52.755Z,23.75
2022-12-11T17:33:54.739Z,22.92
2022-12-11T17:38:56.593Z,24.95
2022-12-11T17:43:58.358Z,24.45
2022-12-11T17:49:02.677Z,22.13
2022-12-11T17:54:04.725Z,22.88
2022-12-11T17:59:06.687Z,22.77
2022-12-11T18:04:08.416Z,21.50
2022-12-11T18:09:11.528Z,22.92
2022-12-11T18:14:17.135Z,24.45
2022-12-11T18:19:20.293Z,24.60
2022-12-11T18:24:22.744Z,23.17
2022-12-11T18:29:24.980Z,23.15
2022-12-11T18:34:26.747Z,22.05
2022-12-11T18:39:28.497Z,20.98
2022-12-11T18:44:30.483Z,20.65
2022-12-11T18:49:32.827Z,22.10
2022-12-11T18:54:35.775Z,22.95
2022-12-11T18:59:37.755Z,23.70
2022-12-11T19:04:39.707Z,27.98
2022-12-11T19:09:46.227Z,20.60
2022-12-11T19:14:49.697Z,24.77
2022-12-11T19:19:51.390Z,23.65
2022-12-11T19:24:53.044Z,21.55
2022-12-11T19:29:55.137Z,20.63
2022-12-11T19:34:57.357Z,22.38
2022-12-11T19:39:59.224Z,22.23
2022-12-11T19:45:02.830Z,21.35
2022-12-11T19:50:05.344Z,20.75
2022-12-11T19:55:07.842Z,22.90
2022-12-11T20:00:10.105Z,22.75
2022-12-11T20:05:14.189Z,21.77
2022-12-11T20:10:16.328Z,24.98
2022-12-11T20:15:20.711Z,22.83
2022-12-11T20:20:24.508Z,22.58
2022-12-11T20:25:27.327Z,24.92
2022-12-11T20:30:28.981Z,22.40
2022-12-11T20:35:30.973Z,22.60
2022-12-11T20:40:33.296Z,23.17
2022-12-11T20:45:34.981Z,21.30
2022-12-11T20:50:36.867Z,23.98
2022-12-11T20:55:40.746Z,23.25
2022-12-11T21:00:57.998Z,22.58
2022-12-11T21:05:59.716Z,23.88
2022-12-11T21:11:01.553Z,22.75
2022-12-11T21:16:07.745Z,24.60
2022-12-11T21:21:09.898Z,22.55
2022-12-11T21:26:11.849Z,24.92
2022-12-11T21:31:16.624Z,21.38
2022-12-11T21:36:18.590Z,21.25
2022-12-11T21:41:23.658Z,22.65
2022-12-11T21:46:27.406Z,21.63
2022-12-11T21:51:36.492Z,24.33
2022-12-11T21:56:40.613Z,22.20
2022-12-11T22:01:45.923Z,21.75
2022-12-11T22:06:47.714Z,22.65
2022-12-11T22:11:55.061Z,22.20
2022-12-11T22:16:59.944Z,21.83
2022-12-11T22:22:01.680Z,21.45
2022-12-11T22:27:03.944Z,23.52
2022-12-11T22:32:06.469Z,22.17
2022-12-11T22:37:08.239Z,22.50
2022-12-11T22:42:09.943Z,22.10
2022-12-11T22:47:11.989Z,24.88
2022-12-11T22:52:13.930Z,24.52
2022-12-11T22:57:15.817Z,25.00
2022-12-11T23:02:17.731Z,25.30
2022-12-11T23:07:19.485Z,26.10
2022-12-11T23:12:21.140Z,24.30
2022-12-11T23:17:22.859Z,25.00
2022-12-11T23:22:24.595Z,25.23
2022-12-11T23:27:26.621Z,22.85
2022-12-11T23:32:32.640Z,25.55
2022-12-11T23:37:34.423Z,25.27
2022-12-11T23:42:36.093Z,24.13
2022-12-11T23:47:37.754Z,23.73
2022-12-11T23:52:39.350Z,23.83
2022-12-11T23:57:40.996Z,23.15
